createdAt,value
2018-05-24T00:02:25.904Z,4.70
2018-05-24T00:04:53.627Z,4.43
2018-05-24T00:07:21.459Z,4.53
2018-05-24T00:09:49.146Z,4.87
2018-05-24T00:12:16.890Z,4.70
2018-05-24T00:14:44.574Z,5.23
2018-05-24T00:17:12.214Z,4.40
2018-05-24T00:19:40.913Z,4.70
2018-05-24T00:22:08.763Z,4.87
2018-05-24T00:24:36.385Z,4.40
2018-05-24T00:27:04.800Z,4.80
2018-05-24T00:29:32.420Z,4.80
2018-05-24T00:32:01.051Z,4.93
2018-05-24T00:34:28.748Z,4.87
2018-05-24T00:36:56.583Z,5.00
2018-05-24T00:39:24.381Z,4.80
2018-05-24T00:41:52.771Z,4.60
2018-05-24T00:44:21.145Z,4.90
2018-05-24T00:46:48.909Z,4.80
2018-05-24T00:49:17.336Z,4.67
2018-05-24T00:51:44.947Z,4.70
2018-05-24T00:54:12.584Z,4.27
2018-05-24T00:56:40.245Z,4.70
2018-05-24T00:59:08.002Z,4.70
2018-05-24T01:01:35.639Z,4.53
2018-05-24T01:04:03.253Z,4.63
2018-05-24T01:06:30.900Z,4.57
2018-05-24T01:08:58.525Z,4.47
2018-05-24T01:11:26.222Z,4.60
2018-05-24T01:13:54.086Z,4.70
2018-05-24T01:16:21.842Z,4.93
2018-05-24T01:18:49.481Z,5.13
2018-05-24T01:21:17.147Z,4.80
2018-05-24T01:23:44.776Z,5.07
2018-05-24T01:26:13.159Z,4.80
2018-05-24T01:28:41.565Z,4.10
2018-05-24T01:31:09.202Z,4.70
2018-05-24T01:33:37.585Z,4.37
2018-05-24T01:36:06.017Z,4.60
2018-05-24T01:38:33.773Z,4.80
2018-05-24T01:41:01.410Z,5.00
2018-05-24T01:43:29.049Z,4.87
2018-05-24T01:45:57.491Z,4.73
2018-05-24T01:48:25.345Z,4.67
2018-05-24T01:50:52.969Z,4.77
2018-05-24T01:53:21.412Z,4.50
2018-05-24T01:55:49.050Z,4.57
2018-05-24T01:58:16.684Z,4.60
2018-05-24T02:00:44.476Z,4.20
2018-05-24T02:03:12.340Z,4.27
2018-05-24T02:05:39.975Z,4.70
2018-05-24T02:08:07.707Z,5.10
2018-05-24T02:10:36.169Z,4.67
2018-05-24T02:13:03.825Z,4.40
2018-05-24T02:15:31.449Z,4.80
2018-05-24T02:17:59.106Z,4.77
2018-05-24T02:20:26.786Z,4.60
2018-05-24T02:22:54.563Z,4.73
2018-05-24T02:25:22.431Z,4.97
2018-05-24T02:27:50.226Z,5.03
2018-05-24T02:30:17.958Z,4.87
2018-05-24T02:32:45.619Z,4.47
2018-05-24T02:35:13.397Z,4.80
2018-05-24T02:37:41.016Z,4.30
2018-05-24T02:40:08.816Z,5.20
2018-05-24T02:42:36.684Z,4.50
2018-05-24T02:45:04.366Z,4.70
2018-05-24T02:47:32.109Z,5.23
2018-05-24T02:49:59.749Z,4.37
2018-05-24T02:52:27.475Z,4.83
2018-05-24T02:54:55.963Z,4.70
2018-05-24T02:57:24.348Z,4.23
2018-05-24T02:59:52.826Z,4.43
2018-05-24T03:02:21.211Z,4.30
2018-05-24T03:04:49.738Z,4.27
2018-05-24T03:07:17.502Z,4.30
2018-05-24T03:09:45.271Z,4.73
2018-05-24T03:12:13.134Z,4.60
2018-05-24T03:14:40.783Z,4.47
2018-05-24T03:17:08.407Z,4.57
2018-05-24T03:19:36.941Z,4.30
2018-05-24T03:22:04.580Z,4.53
2018-05-24T03:24:32.371Z,4.33
2018-05-24T03:27:00.004Z,4.20
2018-05-24T03:29:27.688Z,4.37
2018-05-24T03:31:55.456Z,4.60
2018-05-24T03:34:23.225Z,4.27
2018-05-24T03:36:51.022Z,4.13
2018-05-24T03:39:18.676Z,4.37
2018-05-24T03:41:46.293Z,4.60
2018-05-24T03:44:14.078Z,4.27
2018-05-24T03:46:41.708Z,4.00
2018-05-24T03:49:09.429Z,4.33
2018-05-24T03:51:37.068Z,4.77
2018-05-24T03:54:04.700Z,4.33
2018-05-24T03:56:32.389Z,4.50
2018-05-24T04:02:25.947Z,4.50
2018-05-24T04:04:56.493Z,3.90
2018-05-24T04:07:24.187Z,4.20
2018-05-24T04:09:51.966Z,3.90
2018-05-24T04:12:19.731Z,4.40
2018-05-24T04:14:47.502Z,4.30
2018-05-24T04:17:15.907Z,4.73
2018-05-24T04:19:44.331Z,4.27
2018-05-24T04:22:12.028Z,4.00
2018-05-24T04:24:39.803Z,4.30
2018-05-24T04:27:08.340Z,4.67
2018-05-24T04:29:35.955Z,4.20
2018-05-24T04:32:04.410Z,4.13
2018-05-24T04:34:32.047Z,4.40
2018-05-24T04:36:59.715Z,4.07
2018-05-24T04:39:27.500Z,4.03
2018-05-24T04:41:56.770Z,5.00
2018-05-24T04:44:24.385Z,4.10
2018-05-24T04:46:57.742Z,4.13
2018-05-24T04:49:25.522Z,4.40
2018-05-24T04:51:53.360Z,4.30
2018-05-24T04:54:21.125Z,3.70
2018-05-24T04:56:48.888Z,4.47
2018-05-24T04:59:16.516Z,4.10
2018-05-24T05:01:44.320Z,4.47
2018-05-24T05:04:12.797Z,4.07
2018-05-24T05:06:40.476Z,4.30
2018-05-24T05:09:08.663Z,4.23
2018-05-24T05:11:37.964Z,4.17
2018-05-24T05:14:05.907Z,4.50
2018-05-24T05:16:33.774Z,3.83
2018-05-24T05:19:01.640Z,6.73
2018-05-24T05:21:29.339Z,4.70
2018-05-24T05:23:57.729Z,4.47
2018-05-24T05:26:26.169Z,4.00
2018-05-24T05:28:53.883Z,4.13
2018-05-24T05:31:22.370Z,4.37
2018-05-24T05:33:50.772Z,4.47
2018-05-24T05:36:18.453Z,4.07
2018-05-24T05:38:46.141Z,4.70
2018-05-24T05:41:13.875Z,4.30
2018-05-24T05:43:41.529Z,4.53
2018-05-24T05:46:09.171Z,4.30
2018-05-24T05:48:36.814Z,4.20
2018-05-24T05:51:05.202Z,4.33
2018-05-24T05:53:32.858Z,5.00
2018-05-24T05:56:01.387Z,4.73
2018-05-24T05:58:29.000Z,4.60
2018-05-24T06:00:57.441Z,4.80
2018-05-24T06:03:25.194Z,4.60
2018-05-24T06:05:52.883Z,4.30
2018-05-24T06:08:20.648Z,5.13
2018-05-24T06:10:48.388Z,4.73
2018-05-24T06:13:16.037Z,4.00
2018-05-24T06:15:43.656Z,3.93
2018-05-24T06:18:12.106Z,4.53
2018-05-24T06:20:39.745Z,4.83
2018-05-24T06:23:07.444Z,4.40
2018-05-24T06:25:35.282Z,4.63
2018-05-24T06:28:02.926Z,4.37
2018-05-24T06:30:30.708Z,4.33
2018-05-24T06:32:58.333Z,4.43
2018-05-24T06:35:26.700Z,4.50
2018-05-24T06:37:55.122Z,4.80
2018-05-24T06:40:22.918Z,5.00
2018-05-24T06:42:50.504Z,5.00
2018-05-24T06:45:19.044Z,4.73
2018-05-24T06:47:46.911Z,4.50
2018-05-24T06:50:14.547Z,4.70
2018-05-24T06:52:42.193Z,4.40
2018-05-24T06:55:09.891Z,5.10
2018-05-24T06:57:37.757Z,5.10
2018-05-24T07:00:05.393Z,5.03
2018-05-24T07:02:33.055Z,5.37
2018-05-24T07:05:00.848Z,5.20
2018-05-24T07:07:28.614Z,4.73
2018-05-24T07:09:56.257Z,5.17
2018-05-24T07:12:23.950Z,5.50
2018-05-24T07:14:51.648Z,5.00
2018-05-24T07:17:19.363Z,5.20
2018-05-24T07:19:47.005Z,5.23
2018-05-24T07:22:14.791Z,5.47
2018-05-24T07:24:42.666Z,5.37
2018-05-24T07:27:11.072Z,5.67
2018-05-24T07:29:38.904Z,5.00
2018-05-24T07:32:06.539Z,5.57
2018-05-24T07:34:34.260Z,5.40
2018-05-24T07:37:01.881Z,5.90
2018-05-24T07:39:29.583Z,5.47
2018-05-24T07:41:57.253Z,5.20
2018-05-24T07:44:24.857Z,5.50
2018-05-24T07:46:52.644Z,5.00
2018-05-24T07:49:20.407Z,5.30
2018-05-24T07:51:48.275Z,5.50
2018-05-24T07:54:16.041Z,5.40
2018-05-24T07:56:43.721Z,5.53
2018-05-24T07:59:11.467Z,5.70
2018-05-24T08:01:39.203Z,5.20
2018-05-24T08:04:06.894Z,5.73
2018-05-24T08:06:34.863Z,5.30
2018-05-24T08:09:02.499Z,6.10
2018-05-24T08:11:30.220Z,6.00
2018-05-24T08:13:57.876Z,6.10
2018-05-24T08:16:25.617Z,6.20
2018-05-24T08:18:53.235Z,6.13
2018-05-24T08:21:21.648Z,5.83
2018-05-24T08:23:49.312Z,5.77
2018-05-24T08:26:16.973Z,5.67
2018-05-24T08:28:44.680Z,5.37
2018-05-24T08:31:12.420Z,5.67
2018-05-24T08:33:40.053Z,6.77
2018-05-24T08:36:07.874Z,6.67
2018-05-24T08:38:35.484Z,6.50
2018-05-24T08:41:03.265Z,7.10
2018-05-24T08:43:30.941Z,6.37
2018-05-24T08:45:58.872Z,5.83
2018-05-24T08:48:34.074Z,5.93
2018-05-24T08:51:02.508Z,5.50
2018-05-24T08:53:30.398Z,5.67
2018-05-24T08:55:58.146Z,5.90
2018-05-24T08:58:25.777Z,5.90
2018-05-24T09:00:53.429Z,5.80
2018-05-24T09:03:21.874Z,5.43
2018-05-24T09:05:50.176Z,6.78
2018-05-24T09:08:18.555Z,6.40
2018-05-24T09:10:47.027Z,6.67
2018-05-24T09:13:14.683Z,6.53
2018-05-24T09:15:42.442Z,6.63
2018-05-24T09:18:10.117Z,7.50
2018-05-24T09:20:37.775Z,6.63
2018-05-24T09:23:05.608Z,6.97
2018-05-24T09:25:33.293Z,6.43
2018-05-24T09:28:01.141Z,6.47
2018-05-24T09:30:28.930Z,6.30
2018-05-24T09:32:56.671Z,6.53
2018-05-24T09:35:24.344Z,6.17
2018-05-24T09:37:51.961Z,6.73
2018-05-24T09:40:19.660Z,6.70
2018-05-24T09:42:47.268Z,6.17
2018-05-24T09:45:15.727Z,6.40
2018-05-24T09:47:43.414Z,6.20
2018-05-24T09:50:11.810Z,6.97
2018-05-24T09:52:39.606Z,6.10
2018-05-24T09:55:07.214Z,6.20
2018-05-24T09:57:35.750Z,6.30
2018-05-24T10:00:03.413Z,6.57
2018-05-24T10:02:31.056Z,6.43
2018-05-24T10:04:58.719Z,6.10
2018-05-24T10:07:26.334Z,5.50
2018-05-24T10:09:53.980Z,5.90
2018-05-24T10:12:21.647Z,5.40
2018-05-24T10:14:49.283Z,6.40
2018-05-24T10:17:16.925Z,5.97
2018-05-24T10:19:44.553Z,5.50
2018-05-24T10:22:13.121Z,5.80
2018-05-24T10:24:42.107Z,6.30
2018-05-24T10:27:09.787Z,5.43
2018-05-24T10:29:38.327Z,5.77
2018-05-24T10:32:06.021Z,5.80
2018-05-24T10:34:33.643Z,5.60
2018-05-24T10:37:01.341Z,5.50
2018-05-24T10:39:29.190Z,5.20
2018-05-24T10:41:56.947Z,4.67
2018-05-24T10:44:24.757Z,5.23
2018-05-24T10:46:53.143Z,5.50
2018-05-24T10:49:21.512Z,5.07
2018-05-24T10:51:49.235Z,5.63
2018-05-24T10:54:17.031Z,5.47
2018-05-24T10:56:44.719Z,5.33
2018-05-24T10:59:12.456Z,5.20
2018-05-24T11:01:41.834Z,4.70
2018-05-24T11:04:09.595Z,5.07
2018-05-24T11:06:37.389Z,5.27
2018-05-24T11:09:06.685Z,5.13
2018-05-24T11:11:34.535Z,5.03
2018-05-24T11:14:02.207Z,5.30
2018-05-24T11:16:29.866Z,5.33
2018-05-24T11:18:57.480Z,5.57
2018-05-24T11:21:25.128Z,5.80
2018-05-24T11:23:53.661Z,5.10
2018-05-24T11:26:21.454Z,5.10
2018-05-24T11:28:49.122Z,4.93
2018-05-24T11:31:16.744Z,5.53
2018-05-24T11:33:44.512Z,5.30
2018-05-24T11:36:12.278Z,5.70
2018-05-24T11:38:40.071Z,4.93
2018-05-24T11:41:07.835Z,5.13
2018-05-24T11:43:35.678Z,5.03
2018-05-24T11:46:03.355Z,4.90
2018-05-24T11:48:31.008Z,5.20
2018-05-24T11:50:58.789Z,5.10
2018-05-24T11:53:26.413Z,5.83
2018-05-24T11:55:54.063Z,5.40
2018-05-24T11:58:21.881Z,5.23
2018-05-24T12:00:49.720Z,5.50
2018-05-24T12:03:17.723Z,5.60
2018-05-24T12:05:45.388Z,5.07
2018-05-24T12:08:13.219Z,5.00
2018-05-24T12:10:40.913Z,4.80
2018-05-24T12:13:08.748Z,4.67
2018-05-24T12:15:36.464Z,4.93
2018-05-24T12:18:04.175Z,5.03
2018-05-24T12:20:32.043Z,5.10
2018-05-24T12:22:59.813Z,4.73
2018-05-24T12:25:27.493Z,5.30
2018-05-24T12:27:55.152Z,5.83
2018-05-24T12:30:22.771Z,5.30
2018-05-24T12:32:50.420Z,5.00
2018-05-24T12:35:18.113Z,5.10
2018-05-24T12:37:46.509Z,4.90
2018-05-24T12:40:14.264Z,5.30
2018-05-24T12:42:42.835Z,5.93
2018-05-24T12:45:10.513Z,4.90
2018-05-24T12:47:38.139Z,5.40
2018-05-24T12:50:05.759Z,5.40
2018-05-24T12:52:33.602Z,4.97
2018-05-24T12:55:01.289Z,5.20
2018-05-24T12:57:30.564Z,5.40
2018-05-24T12:59:58.538Z,5.63
2018-05-24T13:02:26.402Z,5.43
2018-05-24T13:04:54.030Z,5.90
2018-05-24T13:07:21.679Z,5.37
2018-05-24T13:09:50.236Z,4.90
2018-05-24T13:12:18.078Z,5.63
2018-05-24T13:14:45.760Z,5.33
2018-05-24T13:17:13.501Z,5.50
2018-05-24T13:19:41.370Z,4.83
2018-05-24T13:22:09.054Z,5.47
2018-05-24T13:24:36.683Z,5.77
2018-05-24T13:27:04.340Z,4.93
2018-05-24T13:29:32.122Z,5.20
2018-05-24T13:31:59.885Z,5.20
2018-05-24T13:34:27.664Z,5.27
2018-05-24T13:36:55.343Z,4.90
2018-05-24T13:39:23.021Z,5.07
2018-05-24T13:41:51.408Z,5.53
2018-05-24T13:44:19.813Z,5.20
2018-05-24T13:46:47.511Z,5.67
2018-05-24T13:49:15.263Z,5.30
2018-05-24T13:51:42.924Z,5.70
2018-05-24T13:54:10.581Z,5.60
2018-05-24T13:56:38.665Z,5.13
2018-05-24T13:59:06.519Z,5.23
2018-05-24T14:01:34.190Z,5.60
2018-05-24T14:04:01.950Z,5.23
2018-05-24T14:06:29.577Z,5.63
2018-05-24T14:08:57.379Z,5.63
2018-05-24T14:11:25.145Z,5.40
2018-05-24T14:13:52.910Z,5.37
2018-05-24T14:16:20.678Z,5.70
2018-05-24T14:18:48.339Z,5.80
2018-05-24T14:21:16.104Z,5.90
2018-05-24T14:23:43.771Z,5.70
2018-05-24T14:26:11.448Z,5.30
2018-05-24T14:28:39.497Z,5.23
2018-05-24T14:31:07.109Z,5.10
2018-05-24T14:33:35.539Z,5.33
2018-05-24T14:36:03.229Z,5.50
2018-05-24T14:38:31.069Z,5.03
2018-05-24T14:40:58.835Z,5.77
2018-05-24T14:43:26.517Z,4.83
2018-05-24T14:45:54.162Z,5.43
2018-05-24T14:48:21.772Z,5.43
2018-05-24T14:50:50.323Z,5.20
2018-05-24T14:53:18.100Z,5.37
2018-05-24T14:55:45.763Z,5.27
2018-05-24T14:58:13.510Z,5.30
2018-05-24T15:00:41.262Z,5.40
2018-05-24T15:03:09.130Z,5.13
2018-05-24T15:05:36.898Z,5.27
2018-05-24T15:08:04.540Z,4.80
2018-05-24T15:10:32.210Z,5.03
2018-05-24T15:12:59.841Z,5.10
2018-05-24T15:15:28.363Z,4.50
2018-05-24T15:17:56.126Z,5.20
2018-05-24T15:20:24.076Z,4.47
2018-05-24T15:22:51.795Z,4.90
2018-05-24T15:25:20.235Z,4.63
2018-05-24T15:27:47.845Z,4.27
2018-05-24T15:30:16.383Z,4.63
2018-05-24T15:32:44.155Z,4.60
2018-05-24T15:35:11.768Z,4.40
2018-05-24T15:37:40.216Z,4.57
2018-05-24T15:40:07.988Z,4.47
2018-05-24T15:42:35.663Z,4.50
2018-05-24T15:45:04.204Z,4.30
2018-05-24T15:47:31.832Z,4.23
2018-05-24T15:49:59.637Z,4.03
2018-05-24T15:52:27.394Z,4.20
2018-05-24T15:54:55.160Z,4.17
2018-05-24T15:57:22.813Z,3.60
2018-05-24T15:59:50.592Z,3.77
2018-05-24T16:02:18.311Z,3.90
2018-05-24T16:04:45.965Z,3.70
2018-05-24T16:07:14.345Z,3.87
2018-05-24T16:09:42.903Z,3.70
2018-05-24T16:12:11.385Z,3.50
2018-05-24T16:14:39.122Z,3.70
2018-05-24T16:17:06.915Z,3.80
2018-05-24T16:19:34.655Z,3.50
2018-05-24T16:22:02.341Z,3.57
2018-05-24T16:24:29.981Z,3.30
2018-05-24T16:26:58.433Z,3.37
2018-05-24T16:29:28.892Z,3.70
2018-05-24T16:31:56.813Z,2.93
2018-05-24T16:34:24.536Z,3.13
2018-05-24T16:36:52.176Z,3.43
2018-05-24T16:39:20.048Z,3.67
2018-05-24T16:41:47.717Z,3.23
2018-05-24T16:44:22.337Z,3.30
2018-05-24T16:46:52.555Z,3.10
2018-05-24T16:49:20.321Z,3.17
2018-05-24T16:51:48.186Z,3.00
2018-05-24T16:54:15.891Z,3.00
2018-05-24T16:56:45.125Z,3.07
2018-05-24T16:59:13.050Z,3.00
2018-05-24T17:01:40.891Z,3.10
2018-05-24T17:04:08.754Z,3.00
2018-05-24T17:06:36.521Z,3.00
2018-05-24T17:09:04.321Z,3.07
2018-05-24T17:11:31.984Z,3.30
2018-05-24T17:13:59.782Z,3.10
2018-05-24T17:16:27.445Z,3.57
2018-05-24T17:18:55.226Z,2.90
2018-05-24T17:21:22.836Z,3.07
2018-05-24T17:23:50.670Z,2.90
2018-05-24T17:26:18.392Z,2.80
2018-05-24T17:28:46.201Z,2.90
2018-05-24T17:31:14.884Z,2.77
2018-05-24T17:33:42.509Z,2.70
2018-05-24T17:36:10.181Z,2.77
2018-05-24T17:38:37.884Z,3.37
2018-05-24T17:41:05.522Z,3.20
2018-05-24T17:43:33.333Z,3.10
2018-05-24T17:46:01.893Z,3.00
2018-05-24T17:48:29.521Z,2.93
2018-05-24T17:50:57.234Z,2.73
2018-05-24T17:53:25.018Z,2.80
2018-05-24T17:55:53.475Z,2.60
2018-05-24T17:58:21.930Z,2.80
2018-05-24T18:00:49.596Z,2.67
2018-05-24T18:03:17.316Z,2.90
2018-05-24T18:05:45.004Z,2.60
2018-05-24T18:08:12.717Z,2.67
2018-05-24T18:10:41.168Z,2.60
2018-05-24T18:13:08.934Z,2.53
2018-05-24T18:15:36.802Z,2.40
2018-05-24T18:18:04.488Z,2.70
2018-05-24T18:20:32.225Z,2.70
2018-05-24T18:22:59.885Z,2.47
2018-05-24T18:25:27.690Z,2.70
2018-05-24T18:27:56.187Z,2.27
2018-05-24T18:30:24.720Z,2.60
2018-05-24T18:32:52.518Z,2.80
2018-05-24T18:35:21.069Z,2.50
2018-05-24T18:37:48.700Z,2.80
2018-05-24T18:40:16.499Z,3.07
2018-05-24T18:42:44.244Z,2.77
2018-05-24T18:45:11.949Z,2.70
2018-05-24T18:47:39.596Z,2.50
2018-05-24T18:50:07.366Z,2.80
2018-05-24T18:52:36.448Z,2.60
2018-05-24T18:55:04.090Z,2.90
2018-05-24T18:57:31.876Z,2.80
2018-05-24T18:59:59.548Z,2.90
2018-05-24T19:02:27.300Z,2.90
2018-05-24T19:04:54.943Z,2.83
2018-05-24T19:07:22.661Z,2.70
2018-05-24T19:09:50.273Z,2.80
2018-05-24T19:12:17.944Z,2.90
2018-05-24T19:14:45.592Z,3.10
2018-05-24T19:17:13.476Z,2.80
2018-05-24T19:19:41.273Z,2.77
2018-05-24T19:22:08.894Z,2.97
2018-05-24T19:24:36.538Z,2.90
2018-05-24T19:27:04.336Z,2.70
2018-05-24T19:29:32.111Z,3.40
2018-05-24T19:32:01.400Z,2.97
2018-05-24T19:34:29.011Z,2.97
2018-05-24T19:36:57.413Z,3.00
2018-05-24T19:39:25.065Z,2.80
2018-05-24T19:41:52.818Z,3.10
2018-05-24T19:44:21.562Z,2.80
2018-05-24T19:46:49.205Z,2.87
2018-05-24T19:49:16.825Z,2.93
2018-05-24T19:51:45.245Z,2.97
2018-05-24T19:54:12.866Z,2.83
2018-05-24T19:56:41.438Z,3.07
2018-05-24T19:59:09.985Z,2.83
2018-05-24T20:01:37.749Z,2.83
2018-05-24T20:04:06.233Z,3.07
2018-05-24T20:06:35.941Z,3.10
2018-05-24T20:09:05.962Z,2.90
2018-05-24T20:11:34.953Z,3.10
2018-05-24T20:14:04.153Z,2.90
2018-05-24T20:16:33.147Z,3.10
2018-05-24T20:19:02.344Z,3.07
2018-05-24T20:21:30.822Z,2.87
2018-05-24T20:24:00.354Z,2.73
2018-05-24T20:26:28.829Z,3.30
2018-05-24T20:28:58.015Z,3.03
2018-05-24T20:31:27.519Z,2.80
2018-05-24T20:33:56.927Z,3.10
2018-05-24T20:36:25.474Z,2.70
2018-05-24T20:38:54.057Z,2.80
2018-05-24T20:41:22.671Z,3.27
2018-05-24T20:43:51.767Z,2.53
2018-05-24T20:46:20.628Z,3.27
2018-05-24T20:48:49.654Z,2.80
2018-05-24T20:51:19.947Z,3.13
2018-05-24T20:53:49.178Z,2.90
2018-05-24T20:56:18.483Z,2.90
2018-05-24T20:58:47.746Z,3.10
2018-05-24T21:01:16.768Z,3.07
2018-05-24T21:03:45.864Z,3.10
2018-05-24T21:06:14.835Z,2.70
2018-05-24T21:08:43.851Z,2.80
2018-05-24T21:11:12.817Z,2.67
2018-05-24T21:13:43.074Z,3.10
2018-05-24T21:16:12.064Z,3.00
2018-05-24T21:18:41.159Z,2.93
2018-05-24T21:21:10.260Z,3.10
2018-05-24T21:23:39.325Z,3.10
2018-05-24T21:26:08.551Z,3.10
2018-05-24T21:28:37.544Z,2.87
2018-05-24T21:31:06.438Z,3.20
2018-05-24T21:33:34.508Z,2.87
2018-05-24T21:36:03.298Z,3.20
2018-05-24T21:38:31.168Z,2.90
2018-05-24T21:40:59.028Z,3.10
2018-05-24T21:43:26.797Z,3.10
2018-05-24T21:45:54.473Z,3.10
2018-05-24T21:48:22.328Z,3.10
2018-05-24T21:50:50.090Z,3.10
2018-05-24T21:53:17.954Z,2.90
2018-05-24T21:55:45.827Z,2.67
2018-05-24T21:58:13.590Z,3.10
2018-05-24T22:00:56.304Z,3.00
2018-05-24T22:03:24.071Z,2.80
2018-05-24T22:05:51.832Z,2.93
2018-05-24T22:08:19.597Z,2.80
2018-05-24T22:10:47.363Z,3.20
2018-05-24T22:13:15.083Z,2.80
2018-05-24T22:15:42.729Z,2.80
2018-05-24T22:18:11.169Z,2.90
2018-05-24T22:20:39.037Z,2.83
2018-05-24T22:23:06.905Z,3.10
2018-05-24T22:25:34.692Z,2.70
2018-05-24T22:28:02.536Z,3.13
2018-05-24T22:30:30.334Z,3.10
2018-05-24T22:32:58.170Z,2.97
2018-05-24T22:35:25.933Z,2.77
2018-05-24T22:37:53.589Z,3.30
2018-05-24T22:40:21.245Z,2.90
2018-05-24T22:42:49.042Z,2.97
2018-05-24T22:45:16.791Z,3.10
2018-05-24T22:47:44.464Z,2.90
2018-05-24T22:50:12.108Z,2.90
2018-05-24T22:52:39.752Z,2.73
2018-05-24T22:55:07.365Z,3.13
2018-05-24T22:57:35.010Z,3.10
2018-05-24T23:00:02.765Z,2.90
2018-05-24T23:02:30.526Z,3.00
2018-05-24T23:04:58.343Z,2.83
2018-05-24T23:07:26.757Z,2.77
2018-05-24T23:09:54.364Z,3.00
2018-05-24T23:12:22.010Z,3.17
2018-05-24T23:14:49.769Z,3.13
2018-05-24T23:17:17.539Z,2.70
2018-05-24T23:19:45.165Z,2.73
2018-05-24T23:22:18.817Z,2.80
2018-05-24T23:24:46.765Z,3.30
2018-05-24T23:27:14.394Z,2.80
2018-05-24T23:29:42.186Z,2.97
2018-05-24T23:32:09.948Z,2.90
2018-05-24T23:34:37.916Z,3.30
2018-05-24T23:37:05.681Z,3.00
2018-05-24T23:39:33.317Z,3.23
2018-05-24T23:42:01.001Z,3.00
2018-05-24T23:44:28.654Z,3.40
2018-05-24T23:46:56.260Z,3.00
2018-05-24T23:49:25.233Z,3.07
2018-05-24T23:51:52.907Z,3.20
2018-05-24T23:54:20.569Z,3.20
2018-05-24T23:56:48.422Z,3.63
2018-05-24T23:59:16.389Z,3.37
